Time;durP1;ratioP1;P1;durP2;ratioP2;P2;SDS_P1;SDS_P2;PMS_P1;PMS_P2;Temp;Humidity;BMP_temperature;BMP_pressure;BME280_temperature;BME280_humidity;BME280_pressure;Samples;Min_cycle;Max_cycle;Signal;HPM_P1;HPM_P2
2022/08/07 00:00:33;;;;;;;2.17;1.20;;;14.00;99.90;;;;;;5074212;28;20682;-42
2022/08/07 00:02:58;;;;;;;1.87;1.37;;;14.00;99.90;;;;;;5074233;28;20203;-41
2022/08/07 00:05:25;;;;;;;3.20;1.50;;;14.00;99.90;;;;;;5073886;28;20184;-42
2022/08/07 00:07:51;;;;;;;1.80;1.40;;;14.00;99.90;;;;;;5073870;28;20232;-40
2022/08/07 00:10:17;;;;;;;2.17;1.50;;;13.90;99.90;;;;;;5072536;28;20222;-42
2022/08/07 00:12:43;;;;;;;1.83;1.37;;;13.90;99.90;;;;;;5074084;28;20179;-41
2022/08/07 00:15:09;;;;;;;3.53;1.90;;;13.90;99.90;;;;;;5073688;28;20257;-41
2022/08/07 00:17:35;;;;;;;3.93;1.50;;;13.90;99.90;;;;;;5073681;28;20655;-42
2022/08/07 00:20:01;;;;;;;1.90;1.40;;;13.80;99.90;;;;;;5073621;28;20194;-42
2022/08/07 00:22:26;;;;;;;4.53;1.70;;;13.80;99.90;;;;;;5073644;28;20180;-41
2022/08/07 00:24:52;;;;;;;3.37;1.50;;;13.80;99.90;;;;;;5073546;28;20189;-43
2022/08/07 00:27:17;;;;;;;1.80;1.40;;;13.70;99.90;;;;;;5073492;28;20175;-40
2022/08/07 00:29:43;;;;;;;2.13;1.30;;;13.70;99.90;;;;;;5073614;28;20203;-41
2022/08/07 00:32:10;;;;;;;1.90;1.40;;;13.70;99.90;;;;;;5073501;28;20207;-44
2022/08/07 00:34:35;;;;;;;2.10;1.37;;;13.70;99.90;;;;;;5073414;28;20195;-39
2022/08/07 00:37:02;;;;;;;1.83;1.47;;;13.70;99.90;;;;;;5073253;28;20198;-46
2022/08/07 00:39:27;;;;;;;3.40;1.30;;;13.60;99.90;;;;;;5073689;28;20179;-40
2022/08/07 00:41:56;;;;;;;3.10;1.43;;;13.50;99.90;;;;;;5073391;28;20616;-44
2022/08/07 00:44:23;;;;;;;2.47;1.50;;;13.50;99.90;;;;;;5072613;28;20174;-41
2022/08/07 00:46:49;;;;;;;4.23;1.53;;;13.40;99.90;;;;;;5073682;28;20183;-40
2022/08/07 00:49:15;;;;;;;3.10;1.60;;;13.40;99.90;;;;;;5073717;28;20179;-40
2022/08/07 00:51:40;;;;;;;3.00;1.60;;;13.40;99.90;;;;;;5073236;28;20525;-40
2022/08/07 00:54:06;;;;;;;4.80;1.80;;;13.30;99.90;;;;;;5073432;28;20632;-39
2022/08/07 00:56:33;;;;;;;3.77;1.77;;;13.30;99.90;;;;;;5073794;28;20174;-41
2022/08/07 00:58:59;;;;;;;3.80;1.83;;;13.30;99.90;;;;;;5073513;28;20230;-40
2022/08/07 01:01:25;;;;;;;2.17;1.47;;;13.30;99.90;;;;;;5073438;28;20195;-40
2022/08/07 01:03:51;;;;;;;1.90;1.53;;;13.30;99.90;;;;;;5073448;28;20186;-40
2022/08/07 01:06:17;;;;;;;3.27;1.83;;;13.40;99.90;;;;;;5073592;28;20194;-42
2022/08/07 01:08:45;;;;;;;4.20;2.20;;;13.30;99.90;;;;;;5073831;28;20224;-39
2022/08/07 01:11:12;;;;;;;3.13;1.80;;;13.40;99.90;;;;;;5073094;28;20223;-39
2022/08/07 01:13:38;;;;;;;2.07;1.60;;;13.40;99.90;;;;;;5073449;28;20186;-40
2022/08/07 01:16:06;;;;;;;2.20;1.77;;;13.30;99.90;;;;;;5073370;28;20258;-39
2022/08/07 01:18:31;;;;;;;1.57;1.40;;;13.30;99.90;;;;;;5073777;28;20612;-41
2022/08/07 01:21:14;;;;;;;3.90;1.90;;;13.30;99.90;;;;;;5073384;28;20241;-40
2022/08/07 01:23:42;;;;;;;3.53;1.70;;;13.30;99.90;;;;;;5071848;28;20182;-39
2022/08/07 01:26:11;;;;;;;4.83;2.10;;;13.20;99.90;;;;;;5073278;28;20225;-41
2022/08/07 01:28:38;;;;;;;3.90;1.80;;;13.30;99.90;;;;;;5073391;28;20198;-38
2022/08/07 01:31:05;;;;;;;4.90;1.90;;;13.30;99.90;;;;;;5071865;28;20294;-39
2022/08/07 01:33:32;;;;;;;4.30;2.10;;;13.20;99.90;;;;;;5073105;28;20180;-40
2022/08/07 01:36:01;;;;;;;2.47;1.80;;;13.20;99.90;;;;;;5073162;28;20259;-41
2022/08/07 01:38:28;;;;;;;3.10;2.00;;;13.20;99.90;;;;;;5073361;28;20200;-40
2022/08/07 01:40:56;;;;;;;4.27;2.13;;;13.20;99.90;;;;;;5073306;28;20191;-40
2022/08/07 01:43:23;;;;;;;6.00;2.20;;;13.20;99.90;;;;;;5073464;28;20695;-39
2022/08/07 01:45:50;;;;;;;4.47;2.30;;;13.20;99.90;;;;;;5072968;28;20176;-40
2022/08/07 01:48:16;;;;;;;2.23;1.97;;;13.10;99.90;;;;;;5072792;28;20176;-42
2022/08/07 01:50:45;;;;;;;3.27;2.50;;;13.10;99.90;;;;;;5072805;28;20212;-39
2022/08/07 01:53:12;;;;;;;3.23;2.20;;;13.10;99.90;;;;;;5073095;28;20185;-40
2022/08/07 01:55:44;;;;;;;4.20;2.17;;;13.00;99.90;;;;;;5074372;28;20187;-39
2022/08/07 01:58:13;;;;;;;2.60;2.10;;;13.00;99.90;;;;;;5076607;28;20176;-40
2022/08/07 02:00:41;;;;;;;4.10;2.33;;;13.00;99.90;;;;;;5076529;28;20223;-40
2022/08/07 02:03:11;;;;;;;4.20;2.20;;;12.90;99.90;;;;;;5076272;28;20233;-39
2022/08/07 02:05:55;;;;;;;4.53;2.20;;;12.90;99.90;;;;;;5076646;28;20182;-41
2022/08/07 02:08:24;;;;;;;3.23;2.37;;;12.90;99.90;;;;;;5076972;28;20700;-39
2022/08/07 02:10:53;;;;;;;3.03;2.03;;;12.90;99.90;;;;;;5076433;28;20219;-40
2022/08/07 02:13:23;;;;;;;3.07;2.13;;;12.80;99.90;;;;;;5076175;28;20182;-39
2022/08/07 02:15:50;;;;;;;3.20;2.03;;;12.80;99.90;;;;;;5076071;28;20271;-41
2022/08/07 02:18:17;;;;;;;3.43;2.40;;;12.70;99.90;;;;;;5076438;28;20179;-39
2022/08/07 02:20:45;;;;;;;3.97;2.30;;;12.70;99.90;;;;;;5076026;28;20290;-41
2022/08/07 02:23:13;;;;;;;2.53;2.10;;;12.70;99.90;;;;;;5076288;28;20237;-40
2022/08/07 02:25:40;;;;;;;5.50;2.40;;;12.60;99.90;;;;;;5075929;28;20246;-40
2022/08/07 02:28:07;;;;;;;3.10;2.20;;;12.60;99.90;;;;;;5075903;28;20180;-40
2022/08/07 02:30:34;;;;;;;2.53;2.10;;;12.50;99.90;;;;;;5075875;28;20297;-42
2022/08/07 02:33:01;;;;;;;3.33;1.90;;;12.50;99.90;;;;;;5076023;28;20279;-42
2022/08/07 02:35:27;;;;;;;2.17;1.93;;;12.50;99.90;;;;;;5076017;28;20538;-40
2022/08/07 02:37:55;;;;;;;2.50;1.90;;;12.40;99.90;;;;;;5075976;28;20202;-42
2022/08/07 02:40:21;;;;;;;3.03;2.10;;;12.30;99.90;;;;;;5074412;28;20271;-41
2022/08/07 02:42:47;;;;;;;3.37;2.17;;;12.20;99.90;;;;;;5076276;28;20270;-42
2022/08/07 02:45:15;;;;;;;2.77;2.00;;;12.10;99.90;;;;;;5075965;28;20271;-41
2022/08/07 02:47:41;;;;;;;2.90;2.10;;;12.00;99.90;;;;;;5076167;28;20547;-42
2022/08/07 02:50:07;;;;;;;2.83;2.00;;;11.90;99.90;;;;;;5076830;28;20211;-41
2022/08/07 02:52:38;;;;;;;3.23;2.00;;;11.90;99.90;;;;;;5076722;28;20199;-41
2022/08/07 02:55:17;;;;;;;2.30;2.00;;;11.80;99.90;;;;;;5077348;28;20164;-41
2022/08/07 02:57:45;;;;;;;2.57;1.90;;;11.80;99.90;;;;;;5076217;28;20167;-41
2022/08/07 03:00:11;;;;;;;2.47;1.97;;;11.70;99.90;;;;;;5075629;28;20207;-39
2022/08/07 03:02:40;;;;;;;2.87;2.20;;;11.60;99.90;;;;;;5075089;28;20191;-37
2022/08/07 03:05:07;;;;;;;3.80;1.97;;;11.60;99.90;;;;;;5073905;28;20183;-41
2022/08/07 03:07:33;;;;;;;2.50;2.00;;;11.50;99.90;;;;;;5074431;28;20631;-39
2022/08/07 03:09:59;;;;;;;4.97;2.30;;;11.40;99.90;;;;;;5075047;28;20233;-39
2022/08/07 03:12:27;;;;;;;3.87;2.20;;;11.40;99.90;;;;;;5075276;28;20183;-39
2022/08/07 03:14:55;;;;;;;2.90;2.23;;;11.30;99.90;;;;;;5074850;28;20636;-40
2022/08/07 03:17:21;;;;;;;3.87;2.30;;;11.20;99.90;;;;;;5074952;28;20179;-39
2022/08/07 03:19:47;;;;;;;3.40;2.23;;;11.10;99.90;;;;;;5074692;28;20583;-41
2022/08/07 03:22:14;;;;;;;2.47;2.10;;;11.10;99.90;;;;;;5074673;28;20167;-40
2022/08/07 03:24:39;;;;;;;3.50;2.20;;;11.00;99.90;;;;;;5075050;28;20198;-41
2022/08/07 03:27:06;;;;;;;2.90;2.23;;;11.00;99.90;;;;;;5074861;28;20772;-39
2022/08/07 03:29:52;;;;;;;3.13;2.10;;;10.90;99.90;;;;;;5074526;28;20535;-38
2022/08/07 03:32:29;;;;;;;3.07;2.03;;;10.90;99.90;;;;;;5074070;28;20187;-40
2022/08/07 03:34:58;;;;;;;2.87;2.20;;;10.80;99.90;;;;;;5073545;28;20240;-40
2022/08/07 03:37:25;;;;;;;3.10;2.33;;;10.80;99.90;;;;;;5074750;28;20597;-40
2022/08/07 03:39:52;;;;;;;2.23;2.03;;;10.70;99.90;;;;;;5074649;28;20208;-39
2022/08/07 03:42:18;;;;;;;4.23;2.60;;;10.70;99.90;;;;;;5074579;28;20182;-40
2022/08/07 03:44:44;;;;;;;3.17;2.20;;;10.70;99.90;;;;;;5074199;28;20179;-39
2022/08/07 03:47:12;;;;;;;4.40;2.37;;;10.60;99.90;;;;;;5074246;28;20233;-40
2022/08/07 03:49:38;;;;;;;2.87;2.30;;;10.60;99.90;;;;;;5074117;28;20199;-39
2022/08/07 03:52:05;;;;;;;2.47;2.20;;;10.60;99.90;;;;;;5074168;28;20635;-38
2022/08/07 03:54:30;;;;;;;3.10;2.40;;;10.50;99.90;;;;;;5074069;28;20207;-38
2022/08/07 03:56:56;;;;;;;2.37;2.00;;;10.50;99.90;;;;;;5074325;28;20214;-40
2022/08/07 03:59:24;;;;;;;3.50;2.23;;;10.60;99.90;;;;;;5072766;28;20203;-40
2022/08/07 04:01:53;;;;;;;3.63;2.40;;;10.50;99.90;;;;;;5073917;28;20195;-40
2022/08/07 04:04:19;;;;;;;4.00;2.30;;;10.50;99.90;;;;;;5073914;28;20182;-39
2022/08/07 04:06:46;;;;;;;4.97;2.07;;;10.50;99.90;;;;;;5073942;28;20266;-40
2022/08/07 04:09:13;;;;;;;3.03;2.33;;;10.40;99.90;;;;;;5074383;28;20180;-40
2022/08/07 04:11:40;;;;;;;2.67;2.20;;;10.40;99.90;;;;;;5072898;28;20211;-38
2022/08/07 04:14:07;;;;;;;3.67;2.30;;;10.40;99.90;;;;;;5074458;28;20172;-39
2022/08/07 04:16:33;;;;;;;3.47;2.47;;;10.30;99.90;;;;;;5074490;28;20333;-42
2022/08/07 04:19:00;;;;;;;3.57;2.00;;;10.30;99.90;;;;;;5073911;28;20179;-40
2022/08/07 04:21:25;;;;;;;2.17;1.93;;;10.30;99.90;;;;;;5073818;28;20557;-41
2022/08/07 04:23:52;;;;;;;3.37;2.10;;;10.20;99.90;;;;;;5074016;28;20190;-41
2022/08/07 04:26:17;;;;;;;3.77;2.20;;;10.20;99.90;;;;;;5073613;28;20278;-42
2022/08/07 04:28:43;;;;;;;2.60;2.20;;;10.10;99.90;;;;;;5073787;28;20236;-40
2022/08/07 04:31:10;;;;;;;2.50;2.10;;;10.10;99.90;;;;;;5073557;28;20320;-41
2022/08/07 04:33:36;;;;;;;4.50;2.37;;;10.10;99.90;;;;;;5074107;28;20183;-40
2022/08/07 04:36:03;;;;;;;2.90;2.13;;;10.10;99.90;;;;;;5073892;28;20225;-39
2022/08/07 04:38:29;;;;;;;2.17;1.90;;;10.00;99.90;;;;;;5073550;28;20268;-41
2022/08/07 04:40:55;;;;;;;3.03;2.00;;;10.00;99.90;;;;;;5073437;28;20673;-40
2022/08/07 04:43:30;;;;;;;4.53;2.27;;;10.00;99.90;;;;;;5073389;28;20213;-41
2022/08/07 04:46:12;;;;;;;4.43;2.20;;;10.00;99.90;;;;;;5073389;28;20220;-40
2022/08/07 04:48:48;;;;;;;4.13;2.53;;;9.90;99.90;;;;;;5073650;28;20225;-41
2022/08/07 04:51:46;;;;;;;2.43;2.20;;;9.90;99.90;;;;;;5073712;28;20241;-39
2022/08/07 04:54:30;;;;;;;2.90;2.23;;;9.90;99.90;;;;;;5072346;28;20179;-41
2022/08/07 04:57:14;;;;;;;2.20;2.00;;;9.90;99.90;;;;;;5073615;28;20209;-41
2022/08/07 05:00:00;;;;;;;3.00;2.47;;;9.90;99.90;;;;;;5074122;28;20525;-40
2022/08/07 05:02:41;;;;;;;3.80;2.90;;;9.90;99.90;;;;;;5071919;28;20261;-42
2022/08/07 05:05:23;;;;;;;4.00;2.60;;;10.00;99.90;;;;;;5073743;28;20167;-40
2022/08/07 05:08:03;;;;;;;6.57;2.97;;;10.00;99.90;;;;;;5073182;28;20216;-41
2022/08/07 05:10:38;;;;;;;2.53;2.33;;;10.00;99.90;;;;;;5073294;28;20213;-43
2022/08/07 05:13:19;;;;;;;5.50;3.00;;;10.10;99.90;;;;;;5073597;28;20189;-40
2022/08/07 05:15:49;;;;;;;3.30;2.40;;;10.10;99.90;;;;;;5073410;28;20171;-38
2022/08/07 05:18:22;;;;;;;4.07;2.70;;;10.20;99.90;;;;;;5073292;28;20182;-41
2022/08/07 05:20:52;;;;;;;4.63;2.53;;;10.20;99.90;;;;;;5073012;28;20670;-40
2022/08/07 05:23:29;;;;;;;4.07;2.50;;;10.30;99.90;;;;;;5073277;28;20310;-41
2022/08/07 05:25:55;;;;;;;4.63;2.90;;;10.30;99.90;;;;;;5073475;28;20696;-40
2022/08/07 05:28:22;;;;;;;5.17;2.77;;;10.40;99.90;;;;;;5072955;28;20214;-40
2022/08/07 05:30:48;;;;;;;4.03;2.77;;;10.40;99.90;;;;;;5074859;28;20258;-39
2022/08/07 05:33:15;;;;;;;3.87;2.83;;;10.50;99.90;;;;;;5075497;28;20193;-39
2022/08/07 05:35:42;;;;;;;6.20;3.10;;;10.60;99.90;;;;;;5076837;28;20539;-39
2022/08/07 05:38:08;;;;;;;5.20;3.30;;;10.60;99.90;;;;;;5076724;28;20194;-41
2022/08/07 05:40:36;;;;;;;5.40;3.63;;;10.70;99.90;;;;;;5076730;28;20249;-40
2022/08/07 05:43:02;;;;;;;4.07;3.60;;;10.90;99.90;;;;;;5076883;28;20642;-40
2022/08/07 05:45:28;;;;;;;6.20;3.73;;;11.00;99.90;;;;;;5076846;28;20233;-39
2022/08/07 05:47:54;;;;;;;6.07;3.40;;;11.10;99.90;;;;;;5076524;28;20187;-39
2022/08/07 05:50:21;;;;;;;6.27;3.87;;;11.20;99.90;;;;;;5076235;28;20228;-40
2022/08/07 05:52:46;;;;;;;5.83;4.47;;;11.40;99.90;;;;;;5076615;28;20186;-38
2022/08/07 05:55:12;;;;;;;7.67;3.97;;;11.40;99.90;;;;;;5076556;28;20202;-39
2022/08/07 05:57:40;;;;;;;8.30;3.97;;;11.50;99.90;;;;;;5076613;28;20194;-40
2022/08/07 06:00:07;;;;;;;6.97;4.00;;;11.70;99.90;;;;;;5076390;28;20259;-42
2022/08/07 06:02:35;;;;;;;4.33;3.60;;;11.80;99.90;;;;;;5074979;28;20658;-41
2022/08/07 06:05:06;;;;;;;6.90;4.37;;;11.90;99.90;;;;;;5076283;28;20211;-40
2022/08/07 06:07:33;;;;;;;4.77;4.17;;;12.10;99.90;;;;;;5076566;28;20264;-38
2022/08/07 06:09:59;;;;;;;6.70;4.50;;;12.20;99.90;;;;;;5076009;28;20249;-39
2022/08/07 06:12:25;;;;;;;6.37;4.63;;;12.40;99.90;;;;;;5075183;28;20321;-38
2022/08/07 06:14:51;;;;;;;8.40;4.47;;;12.50;99.90;;;;;;5076095;28;20655;-43
2022/08/07 06:17:18;;;;;;;6.87;4.33;;;12.70;99.90;;;;;;5075960;28;20176;-37
2022/08/07 06:19:45;;;;;;;5.80;4.17;;;12.90;99.90;;;;;;5075969;28;20182;-42
2022/08/07 06:22:11;;;;;;;6.83;4.30;;;13.00;99.90;;;;;;5075922;28;20635;-39
2022/08/07 06:24:37;;;;;;;6.77;4.23;;;13.20;99.90;;;;;;5076133;28;20183;-39
2022/08/07 06:27:04;;;;;;;5.00;4.27;;;13.30;99.90;;;;;;5075864;28;20175;-41
2022/08/07 06:29:29;;;;;;;10.23;4.60;;;13.50;99.90;;;;;;5075893;28;20228;-40
2022/08/07 06:31:55;;;;;;;6.37;3.87;;;13.60;99.90;;;;;;5075776;28;20221;-40
2022/08/07 06:34:25;;;;;;;5.57;5.00;;;13.80;99.90;;;;;;5075705;28;20187;-40
2022/08/07 06:36:51;;;;;;;7.27;4.30;;;13.90;99.90;;;;;;5075539;28;20286;-40
2022/08/07 06:39:17;;;;;;;6.27;4.07;;;14.00;99.90;;;;;;5075951;28;20172;-38
2022/08/07 06:41:46;;;;;;;8.97;4.63;;;14.20;99.90;;;;;;5074320;28;20206;-40
2022/08/07 06:44:13;;;;;;;7.30;4.47;;;14.40;99.90;;;;;;5075644;28;20180;-41
2022/08/07 06:46:40;;;;;;;10.17;4.70;;;14.50;99.90;;;;;;5075632;28;20207;-39
2022/08/07 06:49:06;;;;;;;5.80;3.93;;;14.70;99.90;;;;;;5075936;28;20187;-41
2022/08/07 06:51:34;;;;;;;7.87;4.33;;;14.80;99.90;;;;;;5074038;28;20227;-42
2022/08/07 06:54:02;;;;;;;8.57;3.60;;;14.90;99.90;;;;;;5075369;28;20180;-40
2022/08/07 06:56:39;;;;;;;4.83;3.40;;;15.10;99.90;;;;;;5075332;28;20258;-43
2022/08/07 06:59:15;;;;;;;8.27;3.47;;;15.20;99.90;;;;;;5075339;28;20167;-40
2022/08/07 07:01:42;;;;;;;4.07;3.50;;;15.40;99.90;;;;;;5075655;28;20195;-40
2022/08/07 07:04:08;;;;;;;6.83;4.00;;;15.90;99.90;;;;;;5075429;28;20190;-39
2022/08/07 07:06:34;;;;;;;6.17;3.40;;;16.30;99.90;;;;;;5075598;28;20190;-40
2022/08/07 07:09:32;;;;;;;4.57;3.00;;;16.60;99.90;;;;;;5075517;28;20190;-43
2022/08/07 07:12:07;;;;;;;8.93;2.80;;;16.80;99.90;;;;;;5052097;28;20227;-40
2022/08/07 07:14:54;;;;;;;3.60;2.80;;;16.80;99.90;;;;;;5075030;28;20183;-42
2022/08/07 07:17:34;;;;;;;3.27;2.97;;;16.80;99.90;;;;;;5073691;28;20220;-41
2022/08/07 07:20:04;;;;;;;3.10;2.73;;;17.10;99.90;;;;;;5075139;28;20203;-39
2022/08/07 07:22:31;;;;;;;5.53;3.07;;;17.50;99.90;;;;;;5073535;28;20213;-42
2022/08/07 07:24:58;;;;;;;3.80;3.10;;;17.60;99.90;;;;;;5074615;28;20658;-41
2022/08/07 07:27:30;;;;;;;3.27;2.57;;;17.70;99.90;;;;;;5074941;28;20183;-41
2022/08/07 07:30:01;;;;;;;6.27;2.70;;;17.80;99.90;;;;;;5073214;28;20172;-41
2022/08/07 07:32:29;;;;;;;5.00;2.60;;;17.90;99.90;;;;;;5074870;28;20544;-40
2022/08/07 07:34:59;;;;;;;6.50;2.80;;;17.90;99.90;;;;;;5074696;28;20175;-43
2022/08/07 07:37:26;;;;;;;2.60;2.10;;;18.00;99.90;;;;;;5074384;28;20195;-41
2022/08/07 07:39:56;;;;;;;3.77;2.13;;;18.30;99.90;;;;;;5073142;28;20187;-42
2022/08/07 07:42:26;;;;;;;2.60;1.87;;;18.70;99.90;;;;;;5074369;28;20172;-40
2022/08/07 07:44:53;;;;;;;3.30;1.90;;;19.00;99.90;;;;;;5074336;28;20186;-41
2022/08/07 07:47:19;;;;;;;1.73;1.43;;;19.30;99.90;;;;;;5074248;28;20168;-40
2022/08/07 07:49:47;;;;;;;2.20;1.90;;;19.60;99.90;;;;;;5074074;28;20563;-41
2022/08/07 07:52:14;;;;;;;3.53;1.73;;;19.90;99.90;;;;;;5072840;28;20658;-41
2022/08/07 07:54:41;;;;;;;2.87;1.93;;;20.20;99.90;;;;;;5073698;28;20206;-40
2022/08/07 07:57:08;;;;;;;6.27;1.60;;;20.50;99.90;;;;;;5074331;28;20521;-40
2022/08/07 07:59:36;;;;;;;2.00;1.53;;;20.70;99.90;;;;;;5074142;28;20176;-42
2022/08/07 08:02:04;;;;;;;3.17;1.63;;;20.80;99.90;;;;;;5073940;28;20714;-41
2022/08/07 08:04:32;;;;;;;2.43;1.37;;;20.70;99.90;;;;;;5073820;28;20179;-41
2022/08/07 08:06:59;;;;;;;3.23;1.30;;;20.80;99.90;;;;;;5073907;28;20187;-40
2022/08/07 08:09:26;;;;;;;2.83;1.30;;;20.90;99.90;;;;;;5072527;28;20191;-42
2022/08/07 08:11:53;;;;;;;4.40;1.47;;;20.90;99.90;;;;;;5073863;28;20207;-41
2022/08/07 08:14:19;;;;;;;3.07;1.60;;;21.10;99.90;;;;;;5073687;28;20641;-41
2022/08/07 08:16:45;;;;;;;3.23;1.47;;;21.10;99.90;;;;;;5073987;28;20182;-41
2022/08/07 08:19:16;;;;;;;4.07;1.63;;;20.90;99.90;;;;;;5074144;28;20176;-41
2022/08/07 08:27:25;;;;;;;4.17;1.57;;;20.90;99.90;;;;;;5042359;28;20203;-40
2022/08/07 08:29:56;;;;;;;2.10;1.37;;;21.10;99.90;;;;;;5073362;28;20179;-41
2022/08/07 08:32:24;;;;;;;3.43;1.47;;;21.50;99.90;;;;;;5073838;28;20195;-42
2022/08/07 08:34:52;;;;;;;3.70;1.50;;;21.50;99.90;;;;;;5073470;28;20198;-41
2022/08/07 08:37:19;;;;;;;3.97;1.33;;;21.50;99.90;;;;;;5073400;28;20598;-41
2022/08/07 08:39:47;;;;;;;1.97;0.97;;;21.60;99.90;;;;;;5073435;28;20547;-42
2022/08/07 08:42:30;;;;;;;1.77;0.93;;;21.70;99.90;;;;;;5073348;28;20636;-40
2022/08/07 08:44:59;;;;;;;2.47;0.97;;;21.70;99.90;;;;;;5073509;28;20511;-45
2022/08/07 08:47:43;;;;;;;3.13;1.10;;;21.80;99.90;;;;;;5073318;28;20697;-44
2022/08/07 08:50:28;;;;;;;1.10;0.90;;;21.80;99.90;;;;;;5073412;28;20284;-45
2022/08/07 08:53:21;;;;;;;2.43;1.00;;;21.90;99.90;;;;;;5072827;28;20205;-43
2022/08/07 08:55:55;;;;;;;1.23;0.73;;;22.10;99.90;;;;;;5073564;28;20601;-44
2022/08/07 08:58:49;;;;;;;0.90;0.50;;;22.10;99.90;;;;;;5073200;28;20164;-44
2022/08/07 09:01:23;;;;;;;0.80;0.60;;;22.10;98.70;;;;;;5073301;28;20694;-44
2022/08/07 09:04:04;;;;;;;1.23;0.57;;;22.00;99.90;;;;;;5071979;28;20175;-45
2022/08/07 09:06:37;;;;;;;0.53;0.40;;;22.00;98.40;;;;;;5076637;28;20580;-45
2022/08/07 09:09:14;;;;;;;0.90;0.50;;;22.00;98.00;;;;;;5077267;28;20167;-46
2022/08/07 09:11:54;;;;;;;2.53;0.60;;;22.20;97.50;;;;;;5078087;28;20315;-45
2022/08/07 09:14:35;;;;;;;1.00;0.43;;;22.20;97.10;;;;;;5077406;28;20152;-46
2022/08/07 09:17:35;;;;;;;3.53;0.60;;;22.30;97.60;;;;;;5077398;28;20166;-46
2022/08/07 09:20:20;;;;;;;0.30;0.30;;;22.50;98.40;;;;;;5076991;28;20234;-46
2022/08/07 09:23:12;;;;;;;0.50;0.40;;;22.60;95.40;;;;;;5077395;28;20179;-45
2022/08/07 09:26:06;;;;;;;2.10;0.70;;;22.60;95.20;;;;;;5076926;28;20180;-45
2022/08/07 09:28:40;;;;;;;0.70;0.40;;;22.60;94.80;;;;;;5076837;28;20211;-45
2022/08/07 09:31:40;;;;;;;0.40;0.40;;;22.70;95.10;;;;;;5076783;28;20206;-46
2022/08/07 09:34:26;;;;;;;0.40;0.40;;;22.80;96.00;;;;;;5077067;28;20176;-45
2022/08/07 09:37:13;;;;;;;2.03;0.40;;;22.90;93.70;;;;;;5076567;28;20670;-46
2022/08/07 09:40:04;;;;;;;0.53;0.37;;;22.80;92.80;;;;;;5077231;28;20164;-46
2022/08/07 09:42:58;;;;;;;0.60;0.37;;;22.80;94.90;;;;;;5076882;28;20210;-45
2022/08/07 09:45:38;;;;;;;1.33;0.40;;;22.80;94.90;;;;;;5072631;28;20266;-44
2022/08/07 09:48:34;;;;;;;0.43;0.40;;;22.90;93.70;;;;;;5077246;28;20198;-47
2022/08/07 09:51:27;;;;;;;0.37;0.30;;;23.00;94.10;;;;;;5076490;28;20567;-46
2022/08/07 09:53:59;;;;;;;1.00;0.57;;;23.00;92.50;;;;;;5076839;28;20157;-43
2022/08/07 09:56:39;;;;;;;0.73;0.40;;;23.00;94.00;;;;;;5076713;28;20175;-47
2022/08/07 09:59:32;;;;;;;2.67;0.50;;;23.20;96.30;;;;;;5076595;28;20267;-46
2022/08/07 10:02:25;;;;;;;1.10;0.40;;;23.40;93.50;;;;;;5077260;28;20543;-46
2022/08/07 10:05:21;;;;;;;1.20;0.50;;;23.50;94.50;;;;;;5076419;28;20178;-47
2022/08/07 10:08:20;;;;;;;2.27;0.60;;;23.70;92.80;;;;;;5076105;28;20172;-45
2022/08/07 10:11:13;;;;;;;1.33;0.30;;;23.80;94.00;;;;;;5075963;28;20215;-46
2022/08/07 10:14:05;;;;;;;0.67;0.40;;;24.00;95.80;;;;;;5076376;28;20160;-45
2022/08/07 10:16:43;;;;;;;1.30;0.40;;;24.30;96.10;;;;;;5076011;28;20164;-46
2022/08/07 10:19:44;;;;;;;1.03;0.50;;;24.40;92.70;;;;;;5076250;28;20163;-46
2022/08/07 10:22:41;;;;;;;0.90;0.40;;;24.20;92.60;;;;;;5053155;28;20219;-47
2022/08/07 10:25:19;;;;;;;0.50;0.50;;;24.00;91.60;;;;;;5059880;28;20199;-45
2022/08/07 10:28:11;;;;;;;3.20;0.60;;;23.90;90.90;;;;;;5075042;28;20180;-46
2022/08/07 10:31:14;;;;;;;0.50;0.40;;;24.00;92.30;;;;;;5075495;28;20215;-46
2022/08/07 10:34:10;;;;;;;0.80;0.60;;;23.90;91.90;;;;;;5075678;28;20175;-46
2022/08/07 10:37:04;;;;;;;0.90;0.40;;;24.10;95.00;;;;;;5075658;28;20601;-48
2022/08/07 10:39:49;;;;;;;5.70;0.53;;;24.30;91.60;;;;;;5074144;28;20195;-47
2022/08/07 10:42:38;;;;;;;2.40;0.50;;;24.20;90.50;;;;;;5075870;28;20604;-48
2022/08/07 10:45:17;;;;;;;1.00;0.50;;;23.90;90.50;;;;;;5075416;28;20160;-46
2022/08/07 10:47:50;;;;;;;0.30;0.30;;;23.80;90.40;;;;;;5075403;28;20190;-45
2022/08/07 10:50:34;;;;;;;0.70;0.57;;;23.80;91.20;;;;;;5075204;28;20706;-47
2022/08/07 10:53:20;;;;;;;0.60;0.50;;;23.80;90.90;;;;;;5075535;28;20187;-46
2022/08/07 10:56:03;;;;;;;1.30;0.50;;;24.00;90.90;;;;;;5075843;28;20282;-48
2022/08/07 10:58:44;;;;;;;3.00;0.50;;;24.00;92.70;;;;;;5075546;28;20525;-46
2022/08/07 11:01:09;;;;;;;0.50;0.50;;;24.10;91.50;;;;;;5075150;28;20248;-49
2022/08/07 11:03:48;;;;;;;0.83;0.53;;;24.10;93.00;;;;;;5075056;28;20188;-46
2022/08/07 11:06:40;;;;;;;0.40;0.40;;;24.30;91.50;;;;;;5075228;28;20170;-45
2022/08/07 11:09:18;;;;;;;4.93;0.60;;;24.40;91.00;;;;;;5075328;28;20164;-46
2022/08/07 11:12:13;;;;;;;0.73;0.60;;;24.60;93.80;;;;;;5074793;28;20215;-46
2022/08/07 11:14:45;;;;;;;0.60;0.50;;;24.80;92.50;;;;;;5072655;28;20188;-47
2022/08/07 11:17:18;;;;;;;1.43;0.50;;;25.10;92.60;;;;;;5075089;28;20172;-47
2022/08/07 11:19:54;;;;;;;0.73;0.60;;;25.20;90.80;;;;;;5074727;28;20168;-46
2022/08/07 11:22:40;;;;;;;0.60;0.60;;;25.20;90.20;;;;;;5075061;28;20208;-47
2022/08/07 11:25:17;;;;;;;1.27;0.50;;;25.10;87.70;;;;;;5075055;28;20156;-46
2022/08/07 11:28:00;;;;;;;0.40;0.40;;;25.00;87.70;;;;;;5074824;28;20259;-49
2022/08/07 11:30:41;;;;;;;0.52;0.50;;;24.80;87.30;;;;;;5074744;28;20227;-47
2022/08/07 11:33:32;;;;;;;0.60;0.60;;;24.70;87.70;;;;;;5074764;28;20168;-47
2022/08/07 11:36:07;;;;;;;1.70;0.50;;;24.50;87.70;;;;;;5074494;28;20164;-46
2022/08/07 11:38:45;;;;;;;1.02;0.57;;;24.50;89.70;;;;;;5074684;28;20205;-47
2022/08/07 11:41:20;;;;;;;0.50;0.40;;;24.70;90.70;;;;;;5074543;28;20206;-48
2022/08/07 11:44:10;;;;;;;1.48;0.60;;;24.70;88.10;;;;;;5074644;28;20163;-48
2022/08/07 11:46:59;;;;;;;0.60;0.60;;;24.60;89.80;;;;;;5054846;28;20196;-48
2022/08/07 11:50:02;;;;;;;0.50;0.50;;;24.70;88.40;;;;;;5074423;28;20535;-47
2022/08/07 11:52:52;;;;;;;1.10;0.60;;;24.80;90.00;;;;;;5074359;28;20532;-46
2022/08/07 11:55:39;;;;;;;2.20;0.60;;;24.90;90.40;;;;;;5074585;28;20626;-48
2022/08/07 11:58:32;;;;;;;2.47;0.70;;;25.00;89.30;;;;;;5074090;28;20175;-47
2022/08/07 12:01:04;;;;;;;0.55;0.55;;;25.10;88.10;;;;;;5074185;28;20622;-47
2022/08/07 12:03:53;;;;;;;1.20;0.70;;;25.10;87.60;;;;;;5074234;28;20175;-48
2022/08/07 12:06:45;;;;;;;0.80;0.80;;;25.20;84.00;;;;;;5074178;28;20529;-46
2022/08/07 12:09:23;;;;;;;1.17;0.60;;;25.20;87.40;;;;;;5074173;28;20194;-46
2022/08/07 12:12:13;;;;;;;1.20;0.50;;;25.20;86.60;;;;;;5074315;28;20207;-48
2022/08/07 12:15:03;;;;;;;0.40;0.40;;;25.30;86.30;;;;;;5073728;28;20168;-47
2022/08/07 12:17:41;;;;;;;1.30;0.60;;;25.30;87.70;;;;;;5074368;28;20211;-49
2022/08/07 12:20:21;;;;;;;1.33;0.70;;;25.30;88.00;;;;;;5074091;28;20195;-47
2022/08/07 12:23:28;;;;;;;2.88;0.70;;;25.40;86.40;;;;;;5074216;28;20159;-48
2022/08/07 12:26:00;;;;;;;4.47;0.52;;;25.50;86.30;;;;;;5073603;28;20171;-48
2022/08/07 12:28:52;;;;;;;1.40;0.75;;;25.50;85.90;;;;;;5073892;28;20160;-47
2022/08/07 12:31:30;;;;;;;2.03;0.80;;;25.70;92.10;;;;;;5073679;28;20210;-48
2022/08/07 12:33:56;;;;;;;3.53;0.70;;;26.00;89.00;;;;;;5073837;28;20620;-48
2022/08/07 12:36:24;;;;;;;0.98;0.50;;;26.00;80.90;;;;;;5073350;28;20282;-48
2022/08/07 12:38:52;;;;;;;0.88;0.50;;;25.70;83.10;;;;;;5073597;28;20663;-49
2022/08/07 12:41:23;;;;;;;2.38;0.40;;;25.70;82.60;;;;;;5072880;28;20223;-47
2022/08/07 12:43:49;;;;;;;0.73;0.60;;;25.70;82.20;;;;;;5074179;28;20271;-48
2022/08/07 12:46:50;;;;;;;1.08;0.45;;;25.70;84.40;;;;;;5073405;28;20549;-47
2022/08/07 12:49:38;;;;;;;1.40;0.70;;;25.90;90.60;;;;;;5073731;28;20155;-48
2022/08/07 12:52:12;;;;;;;1.60;0.73;;;26.20;81.60;;;;;;5073554;28;20203;-47
2022/08/07 12:54:46;;;;;;;1.20;0.70;;;26.20;82.80;;;;;;5073654;28;20171;-49
2022/08/07 12:57:16;;;;;;;0.88;0.65;;;26.20;86.00;;;;;;5073838;28;20182;-48
2022/08/07 12:59:42;;;;;;;1.35;0.90;;;26.40;90.60;;;;;;5073404;28;20186;-46
2022/08/07 13:02:41;;;;;;;1.70;1.02;;;26.40;84.00;;;;;;5073522;28;20190;-48
2022/08/07 13:05:06;;;;;;;1.10;0.82;;;26.40;82.80;;;;;;5073545;28;20306;-47
2022/08/07 13:08:16;;;;;;;1.65;1.15;;;26.40;87.60;;;;;;5073190;28;20211;-49
2022/08/07 13:11:05;;;;;;;3.13;1.33;;;26.50;86.20;;;;;;5053589;28;20368;-49
2022/08/07 13:13:39;;;;;;;2.10;1.20;;;26.30;84.70;;;;;;5073347;28;20198;-47
2022/08/07 13:16:24;;;;;;;3.30;1.30;;;26.10;83.30;;;;;;5073632;28;20156;-47
2022/08/07 13:19:04;;;;;;;2.58;1.45;;;26.00;85.50;;;;;;5073383;28;20168;-47
2022/08/07 13:21:41;;;;;;;2.72;1.63;;;26.00;90.40;;;;;;5073096;28;20203;-47
2022/08/07 13:24:26;;;;;;;3.00;1.50;;;26.10;85.50;;;;;;5073496;28;20181;-47
2022/08/07 13:27:02;;;;;;;1.65;1.10;;;26.10;85.40;;;;;;5073458;28;20184;-47